Elsie, Oregon
Current Conditions -  °F | °C
As of 6:55 AM on Sunday 21 Dec 2014 (Local Time) from KAST Reporting Station
Overcast Overcast  
Wind Chill: 54°   Ceiling: 2100
Heat Index: 54°   Visibility: 8mi
Dew Point: 51°   Wind: 12mph
Humidity: 90%   Direction: 240°WSW
Pressure: 29.92"   Gusts: NA
Location:  45.8905°N, 123.667°W
Report Text: KAST 211455Z AUTO 24010KT 8SM SCT014 OVC021 12/11 A2992 RMK AO2 SLP131 60005 T01220106 53017 $
Loading
Personal Weather Stations






























Interactive Weather Map New forecast layout! Learn more

10-Day Weather Forecast

Advertisements
Track Severe Weather on mobile